Harmon, Oklahoma
Current Conditions -  °F | °C
As of 12:53 PM on Friday 24 Oct 2014 (Local Time) from KGAG Reporting Station
Clear Clear  
Wind Chill: 79°   Ceiling: Unl
Heat Index: 80°   Visibility: 10mi
Dew Point: 62°   Wind: 6mph
Humidity: 56%   Direction: 200°SSW
Pressure: 30.08"   Gusts: NA
Location:  36.0611°N, 99.7076°W
Report Text: KGAG 241753Z AUTO 20005KT 10SM CLR 26/17 A3008 RMK AO2 SLP164 T02610167 10267 20117 58007
Loading
Personal Weather Stations






























Interactive Weather Map
Tropical Storm Tracking
New forecast layout! Learn more

10-Day Weather Forecast

Advertisements
Track Severe Weather on mobile